Forside
METAR-TAF:

METAR-TAF

Lufthavne :

Council Bluffs, Iowa, USA

Breddekreds: 41-16N, længdekreds: 095-46W, højde: 382 m

Aktuelle vejr

Denne rapport blev lavet for 22 minutter siden, kl. 17:15 UTC
Vind 17 kt fra sydøst med vindstød på up til 22 kt
Temperatur -11°C
Fugtighed 100%
Tryk 1018 hPa
Sigt: 14.5 km
Spredte skyer i en højde af 1400 ft

METAR: KCBF 211715Z AUTO 14017G22KT 9SM SCT014 M11/M11 A3006 RMK AO2

Tid: 11:37 (17:37 UTC)


TAF: fraværende

Vejrobservationer og prognoser fra mere end 4000 lufthavne (METAR og TAF).

De gule og røde prikker repræsenterer de meteorologiske stationer.

Flyt musen over at se navnet på stationen.

Så klik over at se vejr observationer og prognoser.

At skifte det kort: Klik på de grønne knapper med et sort kors for at zoome ind; på den grønne knap med en bindestreg for at zoome ud; eller på de grønne pile for tilstødende kort.


METAR-TAF: